createdAt,value
2017-04-11T00:00:24.124Z,74.30
2017-04-11T00:01:23.835Z,74.20
2017-04-11T00:02:23.609Z,74.20
2017-04-11T00:03:23.329Z,74.30
2017-04-11T00:04:23.007Z,74.50
2017-04-11T00:05:22.788Z,74.40
2017-04-11T00:06:22.600Z,74.20
2017-04-11T00:07:22.309Z,74.20
2017-04-11T00:08:22.187Z,74.10
2017-04-11T00:09:21.945Z,74.00
2017-04-11T00:10:21.699Z,74.00
2017-04-11T00:11:21.397Z,73.90
2017-04-11T00:12:21.184Z,73.90
2017-04-11T00:13:20.974Z,73.80
2017-04-11T00:14:20.692Z,73.70
2017-04-11T00:15:20.435Z,73.70
2017-04-11T00:16:20.180Z,73.70
2017-04-11T00:17:19.834Z,73.80
2017-04-11T00:18:19.547Z,73.80
2017-04-11T00:19:19.275Z,73.80
2017-04-11T00:20:18.984Z,73.70
2017-04-11T00:21:18.706Z,73.80
2017-04-11T00:22:18.419Z,73.80
2017-04-11T00:23:18.202Z,73.70
2017-04-11T00:24:18.005Z,73.50
2017-04-11T00:25:17.719Z,73.50
2017-04-11T00:26:17.539Z,74.20
2017-04-11T00:27:17.277Z,73.40
2017-04-11T00:28:17.020Z,73.40
2017-04-11T00:29:16.845Z,73.30
2017-04-11T00:30:16.581Z,73.30
2017-04-11T00:31:16.413Z,73.20
2017-04-11T00:32:16.129Z,73.30
2017-04-11T00:33:16.870Z,73.10
2017-04-11T00:34:16.614Z,73.00
2017-04-11T00:35:16.311Z,72.90
2017-04-11T00:36:15.991Z,72.90
2017-04-11T00:37:15.660Z,73.00
2017-04-11T00:38:15.415Z,73.00
2017-04-11T00:39:15.088Z,72.80
2017-04-11T00:40:14.788Z,72.60
2017-04-11T00:41:14.509Z,72.50
2017-04-11T00:42:14.172Z,72.40
2017-04-11T00:43:13.853Z,72.40
2017-04-11T00:44:13.513Z,72.20
2017-04-11T00:45:13.491Z,72.10
2017-04-11T00:46:13.188Z,72.10
2017-04-11T00:47:12.902Z,71.90
2017-04-11T00:48:12.797Z,71.90
2017-04-11T00:49:12.544Z,72.60
2017-04-11T00:50:12.277Z,71.80
2017-04-11T00:51:11.964Z,71.80
2017-04-11T00:52:11.740Z,71.70
2017-04-11T00:53:11.448Z,71.80
2017-04-11T00:54:12.260Z,72.00
2017-04-11T00:55:12.068Z,72.00
2017-04-11T00:56:11.742Z,71.70
2017-04-11T00:57:11.786Z,71.60
2017-04-11T00:58:11.507Z,71.40
2017-04-11T00:59:11.233Z,72.00
2017-04-11T01:00:10.951Z,71.10
2017-04-11T01:01:10.677Z,71.00
2017-04-11T01:02:10.436Z,70.70
2017-04-11T01:03:10.177Z,70.10
2017-04-11T01:04:09.920Z,69.70
2017-04-11T01:05:09.670Z,68.80
2017-04-11T01:06:09.461Z,68.10
2017-04-11T01:07:09.191Z,67.50
2017-04-11T01:08:08.920Z,67.30
2017-04-11T01:09:08.965Z,67.40
2017-04-11T01:10:08.708Z,67.20
2017-04-11T01:11:08.476Z,67.30
2017-04-11T01:12:08.213Z,67.60
2017-04-11T01:13:08.001Z,67.90
2017-04-11T01:14:07.744Z,68.10
2017-04-11T01:15:07.673Z,67.80
2017-04-11T01:16:07.372Z,67.70
2017-04-11T01:17:07.122Z,68.10
2017-04-11T01:18:06.953Z,67.70
2017-04-11T01:19:06.686Z,67.50
2017-04-11T01:20:06.401Z,67.50
2017-04-11T01:21:06.096Z,67.50
2017-04-11T01:22:05.777Z,67.60
2017-04-11T01:23:05.456Z,67.50
2017-04-11T01:24:05.409Z,67.60
2017-04-11T01:25:05.142Z,67.20
2017-04-11T01:26:04.879Z,67.30
2017-04-11T01:27:04.625Z,67.30
2017-04-11T01:28:04.337Z,67.10
2017-04-11T01:29:04.065Z,67.20
2017-04-11T01:30:03.788Z,67.20
2017-04-11T01:31:03.539Z,67.40
2017-04-11T01:32:03.253Z,67.50
2017-04-11T01:33:02.980Z,67.40
2017-04-11T01:34:02.664Z,67.50
2017-04-11T01:35:02.393Z,67.60
2017-04-11T01:36:02.224Z,67.70
2017-04-11T01:37:01.920Z,67.90
2017-04-11T01:38:32.227Z,67.80
2017-04-11T01:39:31.936Z,67.70
2017-04-11T01:40:31.628Z,68.10
2017-04-11T01:41:31.317Z,68.10
2017-04-11T01:42:31.030Z,68.00
2017-04-11T01:43:30.773Z,68.00
2017-04-11T01:44:30.520Z,68.10
2017-04-11T01:45:30.237Z,68.00
2017-04-11T01:46:30.036Z,68.10
2017-04-11T01:47:29.755Z,68.20
2017-04-11T01:48:29.711Z,68.30
2017-04-11T01:49:29.487Z,68.70
2017-04-11T01:50:29.218Z,68.90
2017-04-11T01:51:29.013Z,68.90
2017-04-11T01:52:29.332Z,69.10
2017-04-11T01:53:29.054Z,69.40
2017-04-11T01:54:28.749Z,69.60
2017-04-11T01:55:28.498Z,69.80
2017-04-11T01:56:28.178Z,70.00
2017-04-11T01:57:27.852Z,70.20
2017-04-11T01:58:27.589Z,70.50
2017-04-11T01:59:27.356Z,70.80
2017-04-11T02:00:27.074Z,71.00
2017-04-11T02:01:26.804Z,71.10
2017-04-11T02:02:26.842Z,71.20
2017-04-11T02:03:26.552Z,71.20
2017-04-11T02:04:26.267Z,71.40
2017-04-11T02:05:26.009Z,71.70
2017-04-11T02:06:25.748Z,71.70
2017-04-11T02:07:25.440Z,71.70
2017-04-11T02:08:25.253Z,71.80
2017-04-11T02:09:25.128Z,71.90
2017-04-11T02:10:24.917Z,72.10
2017-04-11T02:11:24.757Z,72.10
2017-04-11T02:12:24.471Z,72.20
2017-04-11T02:13:24.168Z,72.30
2017-04-11T02:14:23.845Z,72.30
2017-04-11T02:15:23.560Z,72.30
2017-04-11T02:16:23.320Z,73.00
2017-04-11T02:17:23.049Z,72.30
2017-04-11T02:18:22.745Z,72.50
2017-04-11T02:19:22.473Z,72.60
2017-04-11T02:20:22.278Z,72.80
2017-04-11T02:21:21.977Z,73.00
2017-04-11T02:22:21.702Z,73.00
2017-04-11T02:23:21.393Z,73.00
2017-04-11T02:24:21.068Z,73.10
2017-04-11T02:25:20.756Z,73.20
2017-04-11T02:26:20.453Z,73.30
2017-04-11T02:27:20.162Z,73.20
2017-04-11T02:28:19.973Z,73.30
2017-04-11T02:29:19.641Z,73.30
2017-04-11T02:30:19.343Z,73.30
2017-04-11T02:31:19.041Z,73.30
2017-04-11T02:32:19.509Z,73.20
2017-04-11T02:33:19.208Z,73.30
2017-04-11T02:34:18.946Z,74.00
2017-04-11T02:35:18.703Z,73.40
2017-04-11T02:36:18.408Z,73.50
2017-04-11T02:37:18.121Z,73.70
2017-04-11T02:38:17.812Z,73.80
2017-04-11T02:39:17.564Z,73.80
2017-04-11T02:40:17.299Z,73.70
2017-04-11T02:41:17.055Z,73.70
2017-04-11T02:42:16.799Z,73.80
2017-04-11T02:43:16.484Z,73.80
2017-04-11T02:44:16.211Z,74.00
2017-04-11T02:45:15.904Z,74.20
2017-04-11T02:46:15.633Z,74.30
2017-04-11T02:47:15.360Z,74.40
2017-04-11T02:48:15.016Z,74.60
2017-04-11T02:49:14.690Z,74.70
2017-04-11T02:50:14.407Z,75.00
2017-04-11T02:51:14.274Z,75.20
2017-04-11T02:52:14.124Z,75.30
2017-04-11T02:53:14.096Z,75.40
2017-04-11T02:54:13.764Z,75.60
2017-04-11T02:55:13.551Z,75.60
2017-04-11T02:56:13.276Z,75.80
2017-04-11T02:57:13.004Z,75.90
2017-04-11T02:58:12.724Z,76.00
2017-04-11T02:59:12.428Z,76.10
2017-04-11T03:00:12.183Z,76.30
2017-04-11T03:01:11.929Z,76.50
2017-04-11T03:02:11.620Z,76.50
2017-04-11T03:03:11.375Z,76.60
2017-04-11T03:04:11.378Z,76.70
2017-04-11T03:05:11.085Z,76.80
2017-04-11T03:06:10.782Z,76.80
2017-04-11T03:07:10.486Z,76.80
2017-04-11T03:08:10.494Z,76.90
2017-04-11T03:09:10.213Z,77.00
2017-04-11T03:10:09.932Z,77.20
2017-04-11T03:11:09.654Z,77.30
2017-04-11T03:12:09.359Z,77.30
2017-04-11T03:13:09.034Z,77.40
2017-04-11T03:14:08.722Z,77.40
2017-04-11T03:15:08.495Z,77.40
2017-04-11T03:16:08.602Z,77.30
2017-04-11T03:17:08.353Z,77.40
2017-04-11T03:18:08.271Z,77.40
2017-04-11T03:19:07.969Z,77.40
2017-04-11T03:20:07.665Z,77.40
2017-04-11T03:21:07.345Z,77.50
2017-04-11T03:22:07.074Z,77.60
2017-04-11T03:23:06.763Z,77.50
2017-04-11T03:24:06.460Z,77.50
2017-04-11T03:25:06.227Z,77.60
2017-04-11T03:26:05.922Z,77.50
2017-04-11T03:27:05.972Z,77.70
2017-04-11T03:28:06.008Z,77.80
2017-04-11T03:29:05.713Z,77.90
2017-04-11T03:30:05.394Z,78.20
2017-04-11T03:31:05.062Z,78.40
2017-04-11T03:32:04.752Z,78.50
2017-04-11T03:33:04.466Z,78.60
2017-04-11T03:34:04.153Z,78.80
2017-04-11T03:35:03.856Z,78.80
2017-04-11T03:37:03.588Z,78.70
2017-04-11T03:38:04.010Z,78.90
2017-04-11T03:39:03.937Z,78.90
2017-04-11T03:40:04.076Z,79.30
2017-04-11T03:41:03.916Z,79.50
2017-04-11T03:42:03.664Z,79.50
2017-04-11T03:43:03.380Z,79.80
2017-04-11T03:44:03.134Z,79.80
2017-04-11T03:45:02.892Z,80.40
2017-04-11T03:46:02.629Z,79.80
2017-04-11T03:47:02.368Z,79.90
2017-04-11T03:48:02.052Z,79.90
2017-04-11T03:49:01.783Z,79.90
2017-04-11T03:50:01.491Z,80.00
2017-04-11T03:51:01.207Z,80.10
2017-04-11T03:52:00.936Z,80.20
2017-04-11T03:53:00.599Z,80.00
2017-04-11T03:54:00.342Z,80.10
2017-04-11T03:55:00.020Z,80.10
2017-04-11T03:55:59.719Z,80.30
2017-04-11T03:56:59.432Z,80.50
2017-04-11T03:57:59.164Z,80.30
2017-04-11T03:58:58.929Z,80.30
2017-04-11T03:59:58.807Z,80.30
2017-04-11T04:00:58.525Z,80.30
2017-04-11T04:01:58.341Z,80.40
2017-04-11T04:02:58.150Z,80.30
2017-04-11T04:03:57.952Z,80.30
2017-04-11T04:04:57.742Z,80.30
2017-04-11T04:05:57.458Z,80.50
2017-04-11T04:06:57.142Z,80.50
2017-04-11T04:07:56.818Z,80.60
2017-04-11T04:08:56.483Z,80.50
2017-04-11T04:09:56.190Z,80.50
2017-04-11T04:10:56.183Z,80.60
2017-04-11T04:11:55.944Z,80.60
2017-04-11T04:12:55.629Z,80.50
2017-04-11T04:13:55.328Z,80.60
2017-04-11T04:14:55.024Z,80.50
2017-04-11T04:15:54.932Z,80.50
2017-04-11T04:16:54.632Z,80.30
2017-04-11T04:17:54.329Z,80.40
2017-04-11T04:18:54.052Z,80.30
2017-04-11T04:19:53.772Z,80.20
2017-04-11T04:20:53.568Z,80.10
2017-04-11T04:21:53.307Z,80.10
2017-04-11T04:22:53.149Z,80.10
2017-04-11T04:23:52.926Z,79.80
2017-04-11T04:24:52.644Z,79.80
2017-04-11T04:25:52.346Z,79.90
2017-04-11T04:26:52.077Z,79.90
2017-04-11T04:27:51.791Z,79.80
2017-04-11T04:28:51.492Z,79.90
2017-04-11T04:29:51.193Z,80.00
2017-04-11T04:30:50.874Z,79.90
2017-04-11T04:31:50.594Z,80.10
2017-04-11T04:32:50.603Z,79.90
2017-04-11T04:33:50.349Z,79.70
2017-04-11T04:34:50.116Z,79.80
2017-04-11T04:35:49.915Z,79.80
2017-04-11T04:36:49.639Z,79.80
2017-04-11T04:37:49.317Z,79.70
2017-04-11T04:38:48.996Z,79.90
2017-04-11T04:39:49.019Z,79.80
2017-04-11T04:40:48.723Z,79.80
2017-04-11T04:41:48.429Z,79.70
2017-04-11T04:42:48.156Z,79.70
2017-04-11T04:43:47.940Z,79.60
2017-04-11T04:44:47.647Z,79.70
2017-04-11T04:45:47.522Z,79.70
2017-04-11T04:46:47.256Z,79.80
2017-04-11T04:47:46.939Z,79.70
2017-04-11T04:48:47.051Z,79.70
2017-04-11T04:49:46.746Z,79.80
2017-04-11T04:50:46.465Z,79.80
2017-04-11T04:51:46.179Z,79.80
2017-04-11T04:52:45.864Z,80.40
2017-04-11T04:53:45.558Z,79.60
2017-04-11T04:54:45.302Z,79.40
2017-04-11T04:55:45.056Z,79.30
2017-04-11T04:56:44.787Z,79.40
2017-04-11T04:57:44.517Z,79.30
2017-04-11T04:58:44.239Z,79.30
2017-04-11T04:59:43.934Z,79.30
2017-04-11T05:00:43.656Z,79.40
2017-04-11T05:01:43.356Z,79.40
2017-04-11T05:02:43.052Z,79.30
2017-04-11T05:03:42.848Z,79.40
2017-04-11T05:04:42.625Z,79.40
2017-04-11T05:05:42.403Z,79.40
2017-04-11T05:06:42.320Z,79.40
2017-04-11T05:07:42.056Z,79.50
2017-04-11T05:08:42.043Z,79.30
2017-04-11T05:09:41.837Z,79.20
2017-04-11T05:10:41.623Z,79.10
2017-04-11T05:11:41.357Z,79.20
2017-04-11T05:12:41.084Z,79.00
2017-04-11T05:13:40.856Z,78.90
2017-04-11T05:14:40.580Z,78.90
2017-04-11T05:15:40.357Z,78.90
2017-04-11T05:16:40.090Z,78.80
2017-04-11T05:17:39.832Z,78.60
2017-04-11T05:18:39.620Z,78.60
2017-04-11T05:19:39.297Z,78.50
2017-04-11T05:20:39.084Z,78.40
2017-04-11T05:21:38.779Z,78.40
2017-04-11T05:22:38.498Z,78.30
2017-04-11T05:23:38.242Z,78.40
2017-04-11T05:24:37.941Z,78.60
2017-04-11T05:25:38.152Z,78.50
2017-04-11T05:26:39.184Z,78.30
2017-04-11T05:27:38.958Z,78.20
2017-04-11T05:28:38.643Z,78.20
2017-04-11T05:29:39.174Z,78.00
2017-04-11T05:30:38.923Z,78.10
2017-04-11T05:31:40.370Z,78.00
2017-04-11T05:32:40.421Z,78.00
2017-04-11T05:33:41.278Z,77.90
2017-04-11T05:34:41.478Z,77.80
2017-04-11T05:35:41.224Z,77.70
2017-04-11T05:36:40.930Z,77.50
2017-04-11T05:37:40.763Z,77.20
2017-04-11T05:38:40.558Z,77.10
2017-04-11T05:39:40.322Z,76.90
2017-04-11T05:40:40.086Z,76.60
2017-04-11T05:41:39.751Z,76.50
2017-04-11T05:42:39.510Z,76.20
2017-04-11T05:43:39.183Z,76.20
2017-04-11T05:44:39.189Z,76.30
2017-04-11T05:45:38.875Z,76.50
2017-04-11T05:46:38.884Z,76.50
2017-04-11T05:47:38.635Z,76.30
2017-04-11T05:48:38.389Z,76.10
2017-04-11T05:49:38.110Z,75.70
2017-04-11T05:50:37.822Z,75.40
2017-04-11T05:51:39.171Z,75.20
2017-04-11T05:52:39.199Z,75.10
2017-04-11T05:53:38.984Z,74.90
2017-04-11T05:54:38.829Z,74.40
2017-04-11T05:55:38.574Z,74.30
2017-04-11T05:56:38.295Z,74.00
2017-04-11T05:57:38.146Z,73.40
2017-04-11T05:58:38.310Z,73.20
2017-04-11T05:59:38.038Z,73.10
2017-04-11T06:00:38.007Z,72.50
2017-04-11T06:01:37.760Z,72.30
2017-04-11T06:02:37.501Z,72.30
2017-04-11T06:03:37.620Z,72.30
2017-04-11T06:04:37.358Z,72.60
2017-04-11T06:05:37.049Z,72.60
2017-04-11T06:06:36.837Z,72.70
2017-04-11T06:07:36.664Z,72.80
2017-04-11T06:08:36.412Z,72.70
2017-04-11T06:09:36.155Z,72.80
2017-04-11T06:10:35.969Z,72.90
2017-04-11T06:11:35.670Z,72.90
2017-04-11T06:12:35.764Z,73.00
2017-04-11T06:13:35.614Z,73.00
2017-04-11T06:14:35.294Z,72.70
2017-04-11T06:15:35.426Z,72.90
2017-04-11T06:16:35.287Z,73.20
2017-04-11T06:17:39.687Z,73.40
2017-04-11T06:18:39.527Z,73.90
2017-04-11T06:19:39.916Z,74.10
2017-04-11T06:20:39.748Z,73.90
2017-04-11T06:21:39.708Z,73.50
2017-04-11T06:22:40.123Z,73.10
2017-04-11T06:23:39.975Z,72.90
2017-04-11T06:24:39.796Z,72.80
2017-04-11T06:25:39.548Z,72.50
2017-04-11T06:26:39.307Z,72.30
2017-04-11T06:27:39.041Z,71.80
2017-04-11T06:28:38.810Z,71.60
2017-04-11T06:29:38.588Z,71.80
2017-04-11T06:30:38.303Z,71.60
2017-04-11T06:31:38.320Z,71.20
2017-04-11T06:32:38.676Z,71.10
2017-04-11T06:33:38.557Z,71.00
2017-04-11T06:34:38.415Z,69.90
2017-04-11T06:35:38.250Z,69.30
2017-04-11T06:36:38.063Z,69.10
2017-04-11T06:37:38.120Z,68.80
2017-04-11T06:38:37.988Z,68.50
2017-04-11T06:39:37.784Z,68.30
2017-04-11T06:40:38.050Z,68.00
2017-04-11T06:41:38.295Z,67.60
2017-04-11T06:42:41.181Z,67.40
2017-04-11T06:43:40.952Z,67.50
2017-04-11T06:44:41.039Z,67.00
2017-04-11T06:45:40.938Z,66.40
2017-04-11T06:46:40.734Z,66.10
2017-04-11T06:47:44.510Z,66.20
2017-04-11T06:48:44.293Z,65.20
2017-04-11T06:49:44.078Z,65.20
2017-04-11T06:50:43.814Z,64.80
2017-04-11T06:51:43.626Z,64.60
2017-04-11T06:52:43.396Z,64.50
2017-04-11T06:53:43.164Z,64.60
2017-04-11T06:54:42.916Z,64.40
2017-04-11T06:55:42.686Z,63.90
2017-04-11T06:56:42.403Z,63.60
2017-04-11T06:57:42.225Z,63.80
2017-04-11T06:58:42.047Z,63.40
2017-04-11T06:59:41.809Z,63.10
2017-04-11T07:00:41.655Z,62.50
2017-04-11T07:01:41.481Z,62.10
2017-04-11T07:02:41.522Z,61.10
2017-04-11T07:03:41.493Z,59.70
2017-04-11T07:04:41.524Z,59.40
2017-04-11T07:05:41.759Z,58.60
2017-04-11T07:06:41.670Z,55.60
2017-04-11T07:07:42.022Z,53.90
2017-04-11T07:08:42.702Z,52.00
2017-04-11T07:09:42.815Z,50.30
2017-04-11T07:10:42.590Z,48.70
2017-04-11T07:11:42.386Z,47.00
2017-04-11T07:12:42.327Z,44.60
2017-04-11T07:13:42.185Z,40.50
2017-04-11T07:14:41.987Z,39.00
2017-04-11T07:15:41.807Z,37.60
2017-04-11T07:16:41.614Z,36.50
2017-04-11T07:17:41.549Z,36.50
2017-04-11T07:18:41.812Z,36.90
2017-04-11T07:19:41.562Z,36.90
2017-04-11T07:20:41.406Z,35.30
2017-04-11T07:21:41.155Z,33.70
2017-04-11T07:22:41.826Z,33.10
2017-04-11T07:23:41.613Z,33.30
2017-04-11T07:24:41.444Z,31.90
2017-04-11T07:25:41.128Z,30.90
2017-04-11T07:26:40.883Z,30.20
2017-04-11T07:27:40.671Z,29.70
2017-04-11T07:28:40.845Z,29.00
2017-04-11T07:29:40.569Z,28.70
2017-04-11T07:30:41.583Z,27.80
2017-04-11T07:31:41.452Z,26.90
2017-04-11T07:32:41.706Z,26.40
2017-04-11T07:33:41.636Z,25.60
2017-04-11T07:34:41.447Z,24.80
2017-04-11T07:35:41.185Z,23.60
2017-04-11T07:36:40.892Z,23.60
2017-04-11T07:37:40.653Z,22.90
2017-04-11T07:38:40.441Z,21.90
2017-04-11T07:39:40.297Z,21.90
2017-04-11T07:40:40.307Z,21.40
2017-04-11T07:41:40.133Z,21.00
2017-04-11T07:42:39.870Z,20.40
2017-04-11T07:43:39.585Z,19.90
2017-04-11T07:44:39.341Z,19.30
2017-04-11T07:45:39.134Z,19.10
2017-04-11T07:46:38.841Z,18.70
2017-04-11T07:47:38.592Z,18.90
2017-04-11T07:48:38.311Z,19.10
2017-04-11T07:49:38.140Z,19.40
2017-04-11T07:50:37.876Z,19.80
2017-04-11T07:51:38.263Z,20.70
2017-04-11T07:52:38.070Z,21.60
2017-04-11T07:53:38.228Z,21.30
2017-04-11T07:54:38.292Z,20.80
2017-04-11T07:55:38.513Z,19.80
2017-04-11T07:56:38.301Z,19.10
2017-04-11T07:57:38.100Z,19.00
2017-04-11T07:58:37.879Z,18.60
2017-04-11T07:59:37.608Z,18.50
2017-04-11T08:00:37.393Z,17.60
2017-04-11T08:01:37.457Z,17.20
2017-04-11T08:02:37.976Z,17.20
2017-04-11T08:03:37.777Z,18.10
2017-04-11T08:04:37.651Z,18.50
2017-04-11T08:05:37.432Z,18.90
2017-04-11T08:06:37.253Z,18.70
2017-04-11T08:07:37.054Z,17.90
2017-04-11T08:08:38.122Z,18.10
2017-04-11T08:09:37.959Z,17.40
2017-04-11T08:10:37.717Z,17.80
2017-04-11T08:11:37.699Z,17.90
2017-04-11T08:12:37.541Z,17.00
2017-04-11T08:13:37.382Z,17.40
2017-04-11T08:14:38.097Z,18.00
2017-04-11T08:15:38.026Z,18.00
2017-04-11T08:16:38.300Z,17.80
2017-04-11T08:17:38.075Z,17.80
2017-04-11T08:18:41.457Z,17.90
2017-04-11T08:19:41.539Z,18.10
2017-04-11T08:20:42.394Z,17.90
2017-04-11T08:21:42.297Z,17.60
2017-04-11T08:22:42.180Z,16.90
2017-04-11T08:23:42.221Z,16.40
2017-04-11T08:24:42.262Z,16.00
2017-04-11T08:25:42.172Z,15.70
2017-04-11T08:26:41.912Z,15.70
2017-04-11T08:27:41.655Z,16.30
2017-04-11T08:28:41.368Z,16.90
2017-04-11T08:29:41.805Z,17.30
2017-04-11T08:30:41.568Z,17.30
2017-04-11T08:31:41.312Z,16.70
2017-04-11T08:32:41.057Z,16.50
2017-04-11T08:33:40.779Z,16.20
2017-04-11T08:34:40.509Z,15.50
2017-04-11T08:35:40.281Z,15.30
2017-04-11T08:36:40.178Z,15.50
2017-04-11T08:37:40.002Z,14.50
2017-04-11T08:38:39.766Z,14.10
2017-04-11T08:39:39.587Z,14.00
2017-04-11T08:40:39.683Z,14.30
2017-04-11T08:41:40.003Z,14.30
2017-04-11T08:42:39.773Z,14.10
2017-04-11T08:43:40.557Z,13.70
2017-04-11T08:44:41.171Z,13.40
2017-04-11T08:45:41.345Z,12.60
2017-04-11T08:46:41.128Z,11.90
2017-04-11T08:47:40.894Z,11.90
2017-04-11T08:48:40.659Z,12.40
2017-04-11T08:49:40.389Z,12.90
2017-04-11T08:50:40.183Z,12.60
2017-04-11T08:51:39.980Z,12.10
2017-04-11T08:52:39.853Z,12.10
2017-04-11T08:53:39.583Z,11.90
2017-04-11T08:54:39.597Z,11.50
2017-04-11T08:55:40.473Z,11.40
2017-04-11T08:56:40.688Z,10.90
2017-04-11T08:57:41.466Z,10.50
2017-04-11T08:58:41.372Z,10.10
2017-04-11T08:59:41.170Z,9.80
2017-04-11T09:00:41.236Z,9.20
2017-04-11T09:01:41.453Z,9.50
2017-04-11T09:02:41.728Z,9.20
2017-04-11T09:03:41.981Z,8.80
2017-04-11T09:04:42.028Z,8.80
2017-04-11T09:05:42.175Z,8.60
2017-04-11T09:06:42.213Z,8.50
2017-04-11T09:07:42.440Z,8.30
2017-04-11T09:08:43.770Z,8.30
2017-04-11T09:09:46.247Z,8.80
2017-04-11T09:10:46.904Z,8.10
2017-04-11T09:11:47.013Z,8.00
2017-04-11T09:12:47.734Z,7.80
2017-04-11T09:13:49.122Z,7.80
2017-04-11T09:14:49.061Z,7.70
2017-04-11T09:15:49.857Z,7.40
2017-04-11T09:16:52.218Z,7.60
2017-04-11T09:17:52.351Z,7.20
2017-04-11T09:18:52.876Z,7.30
2017-04-11T09:19:52.781Z,7.50
2017-04-11T09:20:52.727Z,7.50
2017-04-11T09:21:53.663Z,7.20
2017-04-11T09:22:53.517Z,7.00
2017-04-11T09:23:53.725Z,7.00
2017-04-11T09:24:54.031Z,7.00
2017-04-11T09:25:54.120Z,7.20
2017-04-11T09:26:54.019Z,7.90
2017-04-11T09:27:53.908Z,7.40
2017-04-11T09:28:54.044Z,7.30
2017-04-11T09:29:54.259Z,7.50
2017-04-11T09:30:55.396Z,7.20
2017-04-11T09:31:55.574Z,7.20
2017-04-11T09:32:55.533Z,7.20
2017-04-11T09:33:55.406Z,7.30
2017-04-11T09:34:55.354Z,7.60
2017-04-11T09:35:55.834Z,7.40
2017-04-11T09:36:55.879Z,7.50
2017-04-11T09:37:59.393Z,7.70
2017-04-11T09:38:59.149Z,7.80
2017-04-11T09:40:04.461Z,8.40
2017-04-11T09:41:04.221Z,8.30
2017-04-11T09:42:04.493Z,8.20
2017-04-11T09:43:04.678Z,8.30
2017-04-11T09:44:05.797Z,8.60
2017-04-11T09:45:05.716Z,7.90
2017-04-11T09:46:05.600Z,7.90
2017-04-11T09:47:05.462Z,8.10
2017-04-11T09:48:05.283Z,8.20
2017-04-11T09:49:05.062Z,8.20
2017-04-11T09:50:05.032Z,8.10
2017-04-11T09:51:04.825Z,8.20
2017-04-11T09:52:04.587Z,8.30
2017-04-11T09:53:04.483Z,8.70
2017-04-11T09:54:04.357Z,8.60
2017-04-11T09:55:04.272Z,8.20
2017-04-11T09:56:04.552Z,8.60
2017-04-11T09:57:04.522Z,8.20
2017-04-11T09:58:04.302Z,8.40
2017-04-11T09:59:04.454Z,9.10
2017-04-11T10:00:04.446Z,10.00
2017-04-11T10:01:04.335Z,10.50
2017-04-11T10:02:04.344Z,10.20
2017-04-11T10:03:05.381Z,10.20
2017-04-11T10:04:05.209Z,9.70
2017-04-11T10:05:06.804Z,9.80
2017-04-11T10:06:06.617Z,10.20
2017-04-11T10:07:10.970Z,10.70
2017-04-11T10:08:11.566Z,11.10
2017-04-11T10:09:11.849Z,11.30
2017-04-11T10:10:11.625Z,11.30
2017-04-11T10:11:11.664Z,12.00
2017-04-11T10:12:11.591Z,12.30
2017-04-11T10:13:12.199Z,12.70
2017-04-11T10:14:12.226Z,13.20
2017-04-11T10:15:12.055Z,13.70
2017-04-11T10:16:11.954Z,13.00
2017-04-11T10:17:11.744Z,12.80
2017-04-11T10:18:11.546Z,12.20
2017-04-11T10:19:11.340Z,11.70
2017-04-11T10:20:11.124Z,11.30
2017-04-11T10:21:10.896Z,11.60
2017-04-11T10:22:11.286Z,11.50
2017-04-11T10:23:11.053Z,12.00
2017-04-11T10:24:11.617Z,12.00
2017-04-11T10:25:11.408Z,12.10
2017-04-11T10:26:11.205Z,12.20
2017-04-11T10:27:10.918Z,12.50
2017-04-11T10:28:10.748Z,13.10
2017-04-11T10:29:10.516Z,12.90
2017-04-11T10:30:10.671Z,12.10
2017-04-11T10:31:10.614Z,11.30
2017-04-11T10:32:15.297Z,10.30
2017-04-11T10:33:15.122Z,9.90
2017-04-11T10:34:15.129Z,9.80
2017-04-11T10:35:15.011Z,9.30
2017-04-11T10:36:14.867Z,9.00
2017-04-11T10:37:14.612Z,9.10
2017-04-11T10:38:14.392Z,9.30
2017-04-11T10:39:14.187Z,9.00
2017-04-11T10:40:15.178Z,8.30
2017-04-11T10:41:15.093Z,8.10
2017-04-11T10:42:15.032Z,8.30
2017-04-11T10:43:14.924Z,8.00
2017-04-11T10:44:14.928Z,8.10
2017-04-11T10:45:14.682Z,8.30
2017-04-11T10:46:14.479Z,8.80
2017-04-11T10:47:14.278Z,9.50
2017-04-11T10:48:14.098Z,9.80
2017-04-11T10:49:13.859Z,10.20
2017-04-11T10:54:25.802Z,23.10
2017-04-11T10:55:25.123Z,22.40
2017-04-11T10:56:24.258Z,25.00
2017-04-11T10:59:42.751Z,38.60
2017-04-11T11:00:41.700Z,27.50
2017-04-11T11:02:16.571Z,27.30
2017-04-11T11:04:55.973Z,33.70
2017-04-11T11:08:16.989Z,29.90
2017-04-11T11:19:02.978Z,27.70
2017-04-11T11:20:02.765Z,32.20
2017-04-11T11:21:02.901Z,26.20
2017-04-11T11:23:22.378Z,26.20
2017-04-11T11:24:22.325Z,25.90
2017-04-11T11:25:21.249Z,25.80
2017-04-11T11:26:21.176Z,28.50
2017-04-11T11:27:47.803Z,28.30
2017-04-11T11:28:47.071Z,26.30
2017-04-11T11:29:45.984Z,25.90
2017-04-11T11:30:45.130Z,26.10
2017-04-11T11:31:44.067Z,26.10
2017-04-11T11:34:41.600Z,27.10
2017-04-11T11:36:05.160Z,27.30
2017-04-11T11:37:04.166Z,30.90
2017-04-11T11:38:05.264Z,27.10
2017-04-11T11:39:04.409Z,26.40
2017-04-11T11:43:24.475Z,26.70
2017-04-11T13:20:54.729Z,28.00
2017-04-11T13:21:54.426Z,26.00
2017-04-11T13:22:53.893Z,26.20
2017-04-11T13:23:52.830Z,26.10
2017-04-11T13:24:52.256Z,25.70
2017-04-11T13:25:51.757Z,25.80
2017-04-11T13:26:50.669Z,25.70
2017-04-11T13:27:50.198Z,25.60
2017-04-11T13:28:49.609Z,25.40
2017-04-11T13:29:49.191Z,25.60
2017-04-11T13:30:48.288Z,26.10
2017-04-11T13:31:48.047Z,25.90
2017-04-11T13:32:46.946Z,26.10
2017-04-11T13:33:45.799Z,26.00
2017-04-11T13:34:45.605Z,26.00
2017-04-11T13:35:45.012Z,26.10
2017-04-11T13:36:44.409Z,26.30
2017-04-11T13:37:43.392Z,26.30
2017-04-11T13:38:42.471Z,26.30
2017-04-11T13:39:41.741Z,26.40
2017-04-11T13:40:40.730Z,26.60
2017-04-11T13:41:39.684Z,26.90
2017-04-11T13:42:38.548Z,26.50
2017-04-11T13:43:37.834Z,26.50
2017-04-11T13:44:37.052Z,26.80
2017-04-11T13:45:35.940Z,27.20
2017-04-11T13:46:34.832Z,27.40
2017-04-11T13:47:33.837Z,27.80
2017-04-11T13:48:34.033Z,27.80
2017-04-11T13:49:33.474Z,27.90
2017-04-11T13:50:32.340Z,28.00
2017-04-11T13:51:31.202Z,27.70
2017-04-11T13:52:30.181Z,27.80
2017-04-11T13:53:29.072Z,27.90
2017-04-11T13:54:27.945Z,27.90
2017-04-11T13:55:26.892Z,27.90
2017-04-11T13:56:25.810Z,28.10
2017-04-11T13:57:25.076Z,27.90
2017-04-11T13:58:24.008Z,27.70
2017-04-11T13:59:23.011Z,27.50
2017-04-11T14:00:21.873Z,27.60
2017-04-11T14:01:20.781Z,27.90
2017-04-11T14:02:20.627Z,28.10
2017-04-11T14:03:19.530Z,28.10
2017-04-11T14:04:18.487Z,28.10
2017-04-11T14:05:17.447Z,28.10
2017-04-11T14:06:16.321Z,28.20
2017-04-11T14:07:15.303Z,28.30
2017-04-11T14:08:14.213Z,28.50
2017-04-11T14:09:13.115Z,28.60
2017-04-11T14:10:12.102Z,28.50
2017-04-11T14:11:11.088Z,28.50
2017-04-11T14:12:10.178Z,28.90
2017-04-11T14:13:09.150Z,28.60
2017-04-11T14:14:08.131Z,28.90
